Time;durP1;ratioP1;P1;durP2;ratioP2;P2;SDS_P1;SDS_P2;PMS_P1;PMS_P2;Temp;Humidity;BMP_temperature;BMP_pressure;BME280_temperature;BME280_humidity;BME280_pressure;Samples;Min_cycle;Max_cycle;Signal;HPM_P1;HPM_P2
2023/06/24 08:57:50;;;;;;;3.50;2.70;;;;;;;21.47;54.31;102273.13;5129649;27;20445;-74
2023/06/24 09:00:23;;;;;;;4.60;2.58;;;;;;;21.59;53.61;102271.06;5102409;28;20454;-76
2023/06/24 09:02:58;;;;;;;4.88;2.92;;;;;;;21.62;52.51;102269.69;5106847;28;20042;-77
2023/06/24 09:05:37;;;;;;;4.00;2.53;;;;;;;21.68;51.78;102277.75;5107327;28;20228;-76
2023/06/24 09:08:06;;;;;;;2.22;2.00;;;;;;;21.76;53.38;102270.91;5108115;28;20541;-78
2023/06/24 09:10:38;;;;;;;3.55;2.65;;;;;;;21.80;52.97;102276.69;5108745;28;20160;-78
2023/06/24 09:13:06;;;;;;;3.45;2.58;;;;;;;21.84;52.79;102267.63;5108710;28;20031;-76
2023/06/24 09:15:36;;;;;;;3.28;2.70;;;;;;;21.92;53.57;102274.56;5107383;28;20503;-75
2023/06/24 09:18:03;;;;;;;2.57;2.37;;;;;;;21.98;52.73;102273.47;5108532;28;20035;-74
2023/06/24 09:20:30;;;;;;;4.32;3.40;;;;;;;22.03;54.57;102262.50;5091760;28;20170;-74
2023/06/24 09:23:03;;;;;;;3.30;2.83;;;;;;;22.12;53.76;102268.34;5090787;28;20024;-75
2023/06/24 09:25:30;;;;;;;5.78;3.17;;;;;;;22.14;54.03;102263.38;5088119;28;20028;-76
2023/06/24 09:27:59;;;;;;;5.65;3.20;;;;;;;22.14;54.35;102252.34;5079007;28;20063;-75
2023/06/24 09:30:25;;;;;;;4.88;2.45;;;;;;;22.18;54.11;102247.13;5078699;28;20132;-75
2023/06/24 09:32:56;;;;;;;3.30;2.53;;;;;;;22.28;50.99;102250.75;5088173;28;20123;-75
2023/06/24 09:35:23;;;;;;;2.65;2.35;;;;;;;22.34;49.88;102246.09;5087796;28;20077;-73
2023/06/24 09:37:51;;;;;;;2.83;2.53;;;;;;;22.33;49.43;102241.72;5089276;28;20384;-74
2023/06/24 09:40:17;;;;;;;2.85;2.40;;;;;;;22.38;49.46;102238.94;5082730;28;20067;-74
2023/06/24 09:42:52;;;;;;;5.05;3.00;;;;;;;22.48;51.81;102238.16;5069900;28;20067;-75
2023/06/24 09:45:23;;;;;;;3.03;2.58;;;;;;;22.51;50.54;102232.09;5073917;28;20036;-75
2023/06/24 09:47:49;;;;;;;3.50;2.60;;;;;;;22.60;50.35;102235.13;5073334;28;20035;-74
2023/06/24 09:50:14;;;;;;;3.88;2.90;;;;;;;22.63;50.05;102229.06;5082898;28;20028;-80
2023/06/24 09:52:41;;;;;;;3.58;2.60;;;;;;;22.65;49.30;102235.16;5085774;28;20468;-77
2023/06/24 09:55:10;;;;;;;4.30;2.50;;;;;;;22.72;51.36;102227.47;5075356;28;20031;-74
2023/06/24 09:57:41;;;;;;;3.90;2.45;;;;;;;22.83;50.04;102231.06;5084426;28;20421;-74
2023/06/24 10:00:10;;;;;;;3.67;2.53;;;;;;;22.88;47.81;102238.50;5067142;28;20017;-76
2023/06/24 10:02:37;;;;;;;4.05;2.05;;;;;;;22.83;45.36;102225.53;5072071;28;20030;-75
2023/06/24 10:05:04;;;;;;;4.03;2.75;;;;;;;22.95;49.09;102228.03;5088068;28;20073;-77
2023/06/24 10:07:31;;;;;;;4.00;2.42;;;;;;;23.03;48.68;102230.22;5068496;28;20056;-76
2023/06/24 10:09:57;;;;;;;3.25;2.10;;;;;;;23.12;48.31;102230.53;5053628;28;20086;-78
2023/06/24 10:12:23;;;;;;;3.08;2.03;;;;;;;23.23;49.89;102231.34;5087290;28;20044;-76
2023/06/24 10:14:55;;;;;;;4.38;2.30;;;;;;;23.27;47.30;102238.00;5074789;28;20032;-77
2023/06/24 10:17:23;;;;;;;5.50;2.40;;;;;;;23.24;45.86;102225.56;5072705;28;20044;-79
2023/06/24 10:19:54;;;;;;;3.47;2.17;;;;;;;23.23;44.98;102231.34;5074732;28;20111;-77
2023/06/24 10:22:28;;;;;;;3.80;2.50;;;;;;;23.21;45.71;102225.28;5071833;28;20044;-75
2023/06/24 10:24:53;;;;;;;3.10;2.22;;;;;;;23.30;47.41;102221.69;5058085;28;20033;-75
2023/06/24 10:27:23;;;;;;;3.35;2.33;;;;;;;23.40;47.40;102226.38;5053994;28;20439;-77
2023/06/24 10:29:55;;;;;;;4.30;2.67;;;;;;;23.46;46.67;102228.03;5053224;28;20423;-78
2023/06/24 10:32:22;;;;;;;2.80;2.58;;;;;;;23.44;47.31;102221.94;5065129;28;20090;-75
2023/06/24 10:34:54;;;;;;;3.78;2.70;;;;;;;23.54;48.12;102221.91;5073272;28;20033;-76
2023/06/24 10:37:23;;;;;;;4.32;2.90;;;;;;;23.59;48.83;102206.44;5074102;28;20032;-77
2023/06/24 10:39:59;;;;;;;4.47;2.50;;;;;;;23.59;49.78;102211.97;5072720;28;20139;-77
2023/06/24 10:43:59;;;;;;;;;;;;;;;;;;;;;
2023/06/24 10:49:50;;;;;;;3.45;3.08;;;;;;;23.84;47.56;102209.13;5036906;28;20029;-77
2023/06/24 10:52:56;;;;;;;3.17;2.60;;;;;;;23.85;48.25;102196.16;5034795;28;20029;-76
2023/06/24 10:56:30;;;;;;;3.47;2.50;;;;;;;24.02;48.33;102209.63;5052650;28;20383;-76
2023/06/24 11:05:52;;;;;;;3.47;2.50;;;;;;;24.29;48.18;102200.94;5065759;28;20028;-74
2023/06/24 11:08:27;;;;;;;7.25;2.67;;;;;;;24.45;48.35;102209.13;5070436;28;20903;-77
2023/06/24 11:11:14;;;;;;;3.50;2.80;;;;;;;24.34;46.33;102189.81;5053509;28;20048;-76
2023/06/24 11:17:21;;;;;;;3.22;2.90;;;;;;;24.62;47.37;102181.09;5019738;28;20419;-76
2023/06/24 11:19:47;;;;;;;5.53;2.90;;;;;;;24.58;45.58;102187.19;5068162;28;20035;-78
2023/06/24 11:22:15;;;;;;;6.05;3.05;;;;;;;24.65;45.43;102183.28;5052560;28;20447;-75
2023/06/24 11:24:41;;;;;;;6.07;3.17;;;;;;;24.81;45.96;102181.22;5053749;28;20025;-76
2023/06/24 11:27:07;;;;;;;3.47;2.90;;;;;;;24.84;45.38;102175.94;5053497;28;20075;-75
2023/06/24 11:29:34;;;;;;;7.30;3.40;;;;;;;24.79;44.05;102178.75;5054423;28;20112;-75
2023/06/24 11:32:01;;;;;;;2.92;2.60;;;;;;;24.91;45.28;102179.19;5073190;28;20369;-78
2023/06/24 11:34:27;;;;;;;3.40;3.10;;;;;;;25.01;45.43;102171.91;5073471;28;20032;-77
2023/06/24 11:37:09;;;;;;;4.93;3.42;;;;;;;25.06;45.09;102166.31;5073352;28;20047;-77
2023/06/24 12:17:24;;;;;;;;;;;;;;;;;;;;;
2023/06/24 12:23:40;;;;;;;7.57;3.75;;;;;;;26.26;44.39;102139.69;4914973;29;20555;-77
2023/06/24 12:26:09;;;;;;;9.15;3.45;;;;;;;26.13;42.55;102132.94;4895469;29;20197;-76
2023/06/24 12:28:34;;;;;;;3.38;2.95;;;;;;;26.28;42.70;102132.69;4866319;29;20032;-75
2023/06/24 12:30:59;;;;;;;6.80;3.13;;;;;;;26.29;41.91;102125.22;4876424;29;20119;-75
2023/06/24 12:33:25;;;;;;;5.10;3.17;;;;;;;26.46;43.10;102127.44;4885104;29;20083;-75
2023/06/24 12:35:53;;;;;;;6.22;3.30;;;;;;;26.44;41.66;102121.38;4896777;29;20088;-74
2023/06/24 12:38:19;;;;;;;3.30;3.00;;;;;;;26.42;41.89;102129.16;4897430;29;20040;-76
2023/06/24 12:40:45;;;;;;;5.55;3.22;;;;;;;26.51;41.40;102125.41;4897095;29;20079;-74
2023/06/24 12:43:11;;;;;;;3.85;2.78;;;;;;;26.72;42.19;102116.75;4897416;29;20103;-74
2023/06/24 12:45:43;;;;;;;4.97;3.10;;;;;;;26.64;41.09;102123.78;4882575;29;20025;-74
2023/06/24 12:48:08;;;;;;;5.00;3.35;;;;;;;26.55;40.01;102117.28;4897518;29;20488;-74
2023/06/24 12:50:34;;;;;;;4.90;2.92;;;;;;;26.60;40.73;102119.16;4897374;29;20033;-75
2023/06/24 12:52:59;;;;;;;7.17;3.20;;;;;;;26.65;40.68;102127.41;4894517;29;20032;-76
2023/06/24 12:55:24;;;;;;;3.95;3.17;;;;;;;26.50;39.97;102122.94;4894514;29;21039;-74
2023/06/24 12:57:50;;;;;;;5.97;3.22;;;;;;;26.61;40.98;102121.63;4897177;29;20037;-74
2023/06/24 13:00:19;;;;;;;4.00;3.08;;;;;;;26.63;40.04;102119.38;4896062;29;20035;-79
2023/06/24 13:02:44;;;;;;;3.70;2.75;;;;;;;26.82;40.92;102112.97;4892347;29;20040;-76
2023/06/24 13:05:21;;;;;;;4.85;3.00;;;;;;;26.99;40.89;102115.97;4897127;29;20043;-77
2023/06/24 13:07:52;;;;;;;4.82;2.92;;;;;;;27.05;40.10;102120.34;4895989;29;21617;-79
2023/06/24 13:11:09;;;;;;;4.15;3.08;;;;;;;27.15;41.04;102112.94;4911123;29;20063;-78
2023/06/24 13:13:39;;;;;;;3.78;3.20;;;;;;;27.07;39.96;102117.25;4893498;29;20122;-78
2023/06/24 13:16:10;;;;;;;4.35;3.00;;;;;;;27.24;40.86;102106.34;4900898;29;20071;-79
2023/06/24 13:18:35;;;;;;;;;;;;;;;27.43;41.04;102107.41;4910501;29;20032;-79
2023/06/24 13:45:29;;;;;;;5.22;2.80;;;;;;;28.01;39.46;102084.47;4916825;29;20056;-81
2023/06/24 13:47:55;;;;;;;4.20;2.88;;;;;;;28.26;38.71;102094.16;4919182;29;20036;-77
2023/06/24 13:50:58;;;;;;;7.32;3.00;;;;;;;28.33;38.65;102095.69;4918083;29;20048;-82
2023/06/24 15:49:16;;;;;;;4.07;2.38;;;;;;;30.13;33.89;102015.28;4914296;29;20084;-72
2023/06/24 15:51:41;;;;;;;4.30;2.47;;;;;;;30.53;33.22;102015.03;4917286;29;20044;-73
2023/06/24 15:54:07;;;;;;;6.45;2.78;;;;;;;30.20;32.59;102013.59;4917281;29;20377;-72
2023/06/24 15:56:32;;;;;;;3.28;2.47;;;;;;;30.47;32.24;102008.81;4916851;29;20058;-72
2023/06/24 15:58:58;;;;;;;3.20;2.67;;;;;;;30.96;31.53;102008.44;4915941;29;20032;-74
2023/06/24 16:01:23;;;;;;;2.60;2.30;;;;;;;31.14;31.66;102006.38;4914852;29;20279;-72
2023/06/24 16:03:48;;;;;;;3.40;2.30;;;;;;;31.41;30.55;102001.44;4916577;29;20035;-72
2023/06/24 16:06:14;;;;;;;3.45;2.35;;;;;;;31.08;30.53;101996.56;4914859;29;20307;-72
